createdAt,value
2019-04-06T00:02:18.754Z,86170.47
2019-04-06T00:04:45.481Z,86172.91
2019-04-06T00:07:12.297Z,86174.59
2019-04-06T00:09:38.992Z,86188.42
2019-04-06T00:12:05.709Z,86183.02
2019-04-06T00:14:32.785Z,86180.39
2019-04-06T00:16:59.508Z,86180.93
2019-04-06T00:19:26.378Z,86173.84
2019-04-06T00:21:53.090Z,86178.14
2019-04-06T00:24:19.820Z,86174.97
2019-04-06T00:26:46.613Z,86174.78
2019-04-06T00:29:13.309Z,86173.67
2019-04-06T00:31:40.070Z,86178.52
2019-04-06T00:34:06.809Z,86178.34
2019-04-06T00:36:33.528Z,86180.77
2019-04-06T00:39:00.297Z,86177.39
2019-04-06T00:41:27.018Z,86180.78
2019-04-06T00:43:53.742Z,86174.97
2019-04-06T00:46:20.569Z,86180.77
2019-04-06T00:48:47.308Z,86185.62
2019-04-06T00:51:14.024Z,86178.52
2019-04-06T00:53:40.793Z,86173.09
2019-04-06T00:56:07.527Z,86172.92
2019-04-06T00:58:34.271Z,86176.66
2019-04-06T01:01:01.030Z,86174.23
2019-04-06T01:03:27.739Z,86175.17
2019-04-06T01:05:54.622Z,86171.61
2019-04-06T01:08:21.347Z,86175.34
2019-04-06T01:10:48.066Z,86173.29
2019-04-06T01:13:14.847Z,86174.59
2019-04-06T01:15:41.568Z,86178.89
2019-04-06T01:18:08.289Z,86172.91
2019-04-06T01:20:35.052Z,86167.50
2019-04-06T01:23:01.772Z,86168.44
2019-04-06T01:25:28.492Z,86171.05
2019-04-06T01:27:55.281Z,86170.09
2019-04-06T01:30:21.992Z,86172.70
2019-04-06T01:32:48.727Z,86167.66
2019-04-06T01:35:15.516Z,86162.83
2019-04-06T01:37:42.236Z,86159.63
2019-04-06T01:40:09.220Z,86168.05
2019-04-06T01:42:35.974Z,86163.75
2019-04-06T01:45:04.898Z,86157.22
2019-04-06T01:47:31.674Z,86149.76
2019-04-06T01:49:58.420Z,86157.73
2019-04-06T01:52:25.145Z,86156.46
2019-04-06T01:54:51.949Z,86153.50
2019-04-06T01:57:18.758Z,86156.46
2019-04-06T01:59:45.488Z,86155.91
2019-04-06T02:02:12.268Z,86160.21
2019-04-06T02:04:39.087Z,86155.91
2019-04-06T02:07:05.747Z,86157.97
2019-04-06T02:09:32.580Z,86157.97
2019-04-06T02:11:59.590Z,86163.38
2019-04-06T02:14:26.272Z,86159.41
2019-04-06T02:16:53.047Z,86160.16
2019-04-06T02:19:19.855Z,86153.67
2019-04-06T02:21:46.593Z,86158.52
2019-04-06T02:24:13.337Z,86156.66
2019-04-06T02:26:40.104Z,86154.80
2019-04-06T02:29:06.925Z,86154.61
2019-04-06T02:31:33.596Z,86155.16
2019-04-06T02:34:20.561Z,86153.50
2019-04-06T02:36:47.243Z,86152.55
2019-04-06T02:39:13.977Z,86147.30
2019-04-06T02:41:40.860Z,86148.95
2019-04-06T02:44:07.615Z,86144.86
2019-04-06T02:46:34.328Z,86144.86
2019-04-06T02:49:01.251Z,86145.03
2019-04-06T02:51:27.973Z,86144.88
2019-04-06T02:53:54.689Z,86150.30
2019-04-06T02:56:21.535Z,86147.16
2019-04-06T02:58:48.258Z,86140.62
2019-04-06T03:01:15.034Z,86146.22
2019-04-06T03:03:42.121Z,86146.20
2019-04-06T03:06:10.402Z,86136.30
2019-04-06T03:08:37.183Z,86140.80
2019-04-06T03:11:04.108Z,86144.52
2019-04-06T03:13:30.813Z,86141.35
2019-04-06T03:15:57.572Z,86144.89
2019-04-06T03:18:24.354Z,86139.11
2019-04-06T03:20:51.044Z,86137.43
2019-04-06T03:23:17.919Z,86136.51
2019-04-06T03:25:44.626Z,86131.83
2019-04-06T03:28:11.356Z,86132.77
2019-04-06T03:30:38.217Z,86129.40
2019-04-06T03:33:04.954Z,86126.95
2019-04-06T03:35:31.679Z,86129.77
2019-04-06T03:37:58.469Z,86126.98
2019-04-06T03:40:25.354Z,86130.52
2019-04-06T03:42:52.458Z,86130.16
2019-04-06T03:45:19.237Z,86124.17
2019-04-06T03:47:45.881Z,86123.81
2019-04-06T03:50:12.817Z,86124.91
2019-04-06T03:52:39.523Z,86121.20
2019-04-06T03:55:07.262Z,86123.05
2019-04-06T03:57:34.192Z,86119.30
2019-04-06T04:00:00.928Z,86128.66
2019-04-06T04:02:27.788Z,86124.34
2019-04-06T04:04:54.512Z,86121.55
2019-04-06T04:07:21.227Z,86124.74
2019-04-06T04:09:48.025Z,86126.42
2019-04-06T04:12:14.747Z,86130.70
2019-04-06T04:14:41.489Z,86127.92
2019-04-06T04:17:08.394Z,86128.10
2019-04-06T04:19:35.310Z,86138.36
2019-04-06T04:22:02.195Z,86129.41
2019-04-06T04:24:28.900Z,86131.66
2019-04-06T04:26:55.654Z,86137.63
2019-04-06T04:29:22.489Z,86137.45
2019-04-06T04:31:49.203Z,86137.63
2019-04-06T04:34:15.950Z,86140.80
2019-04-06T04:36:42.697Z,86143.03
2019-04-06T04:39:09.426Z,86144.53
2019-04-06T04:41:39.215Z,86146.23
2019-04-06T04:44:04.692Z,86151.81
2019-04-06T04:46:31.403Z,86150.52
2019-04-06T04:48:58.438Z,86153.50
2019-04-06T04:51:25.351Z,86155.36
2019-04-06T04:53:52.080Z,86153.67
2019-04-06T04:56:18.878Z,86162.66
2019-04-06T04:58:45.610Z,86157.97
2019-04-06T05:01:12.314Z,86159.86
2019-04-06T05:03:39.098Z,86161.70
2019-04-06T05:06:05.900Z,86159.67
2019-04-06T05:08:32.816Z,86163.02
2019-04-06T05:10:59.507Z,86166.94
2019-04-06T05:13:26.268Z,86170.28
2019-04-06T05:16:12.381Z,86168.23
2019-04-06T05:18:41.364Z,86166.95
2019-04-06T05:21:08.490Z,86177.94
2019-04-06T05:23:35.381Z,86180.19
2019-04-06T05:26:02.732Z,86185.59
2019-04-06T05:28:29.620Z,86181.50
2019-04-06T05:30:56.352Z,86183.92
2019-04-06T05:33:23.076Z,86181.13
2019-04-06T05:35:49.867Z,86183.76
2019-04-06T05:38:16.579Z,86187.12
2019-04-06T05:40:43.308Z,86192.53
2019-04-06T05:43:29.824Z,86193.83
2019-04-06T05:45:56.531Z,86199.98
2019-04-06T05:48:23.401Z,86197.93
2019-04-06T05:50:50.126Z,86206.35
2019-04-06T05:53:16.944Z,86202.24
2019-04-06T05:55:43.757Z,86200.57
2019-04-06T05:58:11.085Z,86205.80
2019-04-06T06:00:39.959Z,86214.21
2019-04-06T06:03:08.509Z,86205.44
2019-04-06T06:05:34.947Z,86210.11
2019-04-06T06:08:01.669Z,86213.66
2019-04-06T06:10:28.495Z,86216.45
2019-04-06T06:12:55.418Z,86219.82
2019-04-06T06:15:22.149Z,86222.06
2019-04-06T06:17:49.019Z,86229.73
2019-04-06T06:20:15.965Z,86232.16
2019-04-06T06:22:42.682Z,86232.53
2019-04-06T06:25:09.857Z,86232.91
2019-04-06T06:27:36.573Z,86228.80
2019-04-06T06:30:05.956Z,86230.86
2019-04-06T06:32:32.679Z,86226.00
2019-04-06T06:34:59.379Z,86220.58
2019-04-06T06:37:26.227Z,86222.65
2019-04-06T06:39:52.948Z,86224.90
2019-04-06T06:42:19.670Z,86229.38
2019-04-06T06:44:46.419Z,86230.86
2019-04-06T06:47:13.135Z,86238.52
2019-04-06T06:49:40.014Z,86235.89
2019-04-06T06:52:06.723Z,86234.23
2019-04-06T06:54:33.493Z,86238.16
2019-04-06T06:57:00.306Z,86233.67
2019-04-06T06:59:27.066Z,86240.98
2019-04-06T07:01:53.793Z,86238.72
2019-04-06T07:04:20.589Z,86237.98
2019-04-06T07:06:47.317Z,86237.80
2019-04-06T07:09:14.036Z,86237.22
2019-04-06T07:11:40.950Z,86243.77
2019-04-06T07:14:07.977Z,86235.55
2019-04-06T07:16:34.652Z,86247.14
2019-04-06T07:19:01.690Z,86246.21
2019-04-06T07:21:28.487Z,86242.45
2019-04-06T07:23:55.209Z,86244.52
2019-04-06T07:26:22.004Z,86242.63
2019-04-06T07:28:48.740Z,86248.80
2019-04-06T07:31:15.556Z,86247.67
2019-04-06T07:33:42.288Z,86240.56
2019-04-06T07:36:09.166Z,86245.05
2019-04-06T07:38:38.134Z,86248.20
2019-04-06T07:41:04.513Z,86242.78
2019-04-06T07:43:31.224Z,86242.77
2019-04-06T07:45:58.008Z,86241.45
2019-04-06T07:48:24.840Z,86244.80
2019-04-06T07:50:51.553Z,86239.54
2019-04-06T07:53:18.378Z,86241.02
2019-04-06T07:55:45.100Z,86232.59
2019-04-06T07:58:11.811Z,86236.86
2019-04-06T08:00:38.589Z,86237.17
2019-04-06T08:03:05.320Z,86231.73
2019-04-06T08:05:32.307Z,86231.16
2019-04-06T08:07:59.039Z,86233.16
2019-04-06T08:10:25.807Z,86229.94
2019-04-06T08:12:52.572Z,86235.69
2019-04-06T08:15:19.276Z,86231.78
2019-04-06T08:17:46.017Z,86233.26
2019-04-06T08:20:13.199Z,86229.72
2019-04-06T08:22:39.889Z,86230.27
2019-04-06T08:25:06.937Z,86234.01
2019-04-06T08:27:33.705Z,86234.36
2019-04-06T08:30:00.436Z,86237.47
2019-04-06T08:32:27.147Z,86240.62
2019-04-06T08:34:53.938Z,86236.88
2019-04-06T08:37:21.245Z,86230.79
2019-04-06T08:39:48.057Z,86237.73
2019-04-06T08:42:14.744Z,86234.88
2019-04-06T08:44:41.487Z,86234.28
2019-04-06T08:47:08.264Z,86236.31
2019-04-06T08:49:34.984Z,86232.21
2019-04-06T08:52:01.698Z,86230.69
2019-04-06T08:54:28.568Z,86227.22
2019-04-06T08:56:55.330Z,86231.50
2019-04-06T08:59:22.061Z,86232.61
2019-04-06T09:01:48.806Z,86236.75
2019-04-06T09:04:15.506Z,86236.11
2019-04-06T09:06:42.268Z,86243.23
2019-04-06T09:09:08.986Z,86242.97
2019-04-06T09:11:35.710Z,86246.81
2019-04-06T09:14:02.761Z,86249.09
2019-04-06T09:16:29.492Z,86252.36
2019-04-06T09:18:56.243Z,86249.64
2019-04-06T09:21:23.147Z,86252.98
2019-04-06T09:23:49.846Z,86253.58
2019-04-06T09:26:16.643Z,86256.67
2019-04-06T09:28:43.471Z,86253.88
2019-04-06T09:31:10.207Z,86249.54
2019-04-06T09:33:36.924Z,86253.48
2019-04-06T09:36:03.825Z,86252.92
2019-04-06T09:38:30.796Z,86257.37
2019-04-06T09:40:57.577Z,86246.06
2019-04-06T09:43:24.400Z,86243.98
2019-04-06T09:45:51.154Z,86242.66
2019-04-06T09:48:17.891Z,86242.31
2019-04-06T09:50:44.886Z,86238.85
2019-04-06T09:53:11.583Z,86237.09
2019-04-06T09:55:38.421Z,86234.61
2019-04-06T09:58:05.355Z,86232.31
2019-04-06T10:00:32.308Z,86239.36
2019-04-06T10:02:59.030Z,86234.61
2019-04-06T10:05:25.778Z,86237.17
2019-04-06T10:07:52.510Z,86232.59
2019-04-06T10:10:19.353Z,86230.53
2019-04-06T10:12:46.016Z,86229.27
2019-04-06T10:15:14.986Z,86224.38
2019-04-06T10:17:41.894Z,86231.09
2019-04-06T10:20:09.022Z,86225.45
2019-04-06T10:22:35.743Z,86227.07
2019-04-06T10:25:04.520Z,86228.31
2019-04-06T10:27:31.267Z,86222.84
2019-04-06T10:29:58.278Z,86229.01
2019-04-06T10:32:25.005Z,86223.94
2019-04-06T10:34:51.759Z,86223.13
2019-04-06T10:37:18.648Z,86220.95
2019-04-06T10:39:45.392Z,86222.06
2019-04-06T10:42:12.107Z,86223.13
2019-04-06T10:44:39.048Z,86223.67
2019-04-06T10:47:05.871Z,86228.02
2019-04-06T10:49:32.764Z,86231.13
2019-04-06T10:51:59.502Z,86231.64
2019-04-06T10:54:26.482Z,86235.72
2019-04-06T10:56:53.434Z,86229.67
2019-04-06T10:59:20.422Z,86223.06
2019-04-06T11:01:47.434Z,86229.36
2019-04-06T11:04:14.273Z,86229.36
2019-04-06T11:06:40.989Z,86225.33
2019-04-06T11:09:07.928Z,86226.20
2019-04-06T11:11:34.800Z,86227.45
2019-04-06T11:14:01.761Z,86231.47
2019-04-06T11:16:28.495Z,86225.23
2019-04-06T11:18:55.695Z,86235.64
2019-04-06T11:21:22.518Z,86231.97
2019-04-06T11:23:49.284Z,86232.54
2019-04-06T11:26:16.080Z,86233.38
2019-04-06T11:28:44.722Z,86238.63
2019-04-06T11:31:11.599Z,86230.28
2019-04-06T11:33:38.566Z,86229.47
2019-04-06T11:36:05.537Z,86224.60
2019-04-06T11:38:32.405Z,86228.91
2019-04-06T11:40:59.138Z,86232.92
2019-04-06T11:43:25.890Z,86228.96
2019-04-06T11:45:52.647Z,86228.11
2019-04-06T11:48:20.387Z,86229.78
2019-04-06T11:50:47.098Z,86228.62
2019-04-06T11:53:13.859Z,86227.05
2019-04-06T11:55:40.569Z,86231.00
2019-04-06T11:58:07.515Z,86216.89
2019-04-06T12:00:34.219Z,86226.33
2019-04-06T12:03:00.922Z,86229.16
2019-04-06T12:05:27.771Z,86231.44
2019-04-06T12:07:54.493Z,86237.77
2019-04-06T12:10:21.292Z,86238.59
2019-04-06T12:12:48.275Z,86231.66
2019-04-06T12:15:15.020Z,86241.79
2019-04-06T12:17:42.021Z,86244.17
2019-04-06T12:20:09.627Z,86248.78
2019-04-06T12:22:36.374Z,86254.75
2019-04-06T12:25:05.559Z,86249.66
2019-04-06T12:27:32.298Z,86248.84
2019-04-06T12:29:59.223Z,86252.77
2019-04-06T12:32:26.120Z,86254.14
2019-04-06T12:34:52.834Z,86251.09
2019-04-06T12:37:19.569Z,86241.58
2019-04-06T12:39:53.057Z,86242.57
2019-04-06T12:42:15.128Z,86243.81
2019-04-06T12:44:42.005Z,86241.33
2019-04-06T12:47:08.774Z,86241.66
2019-04-06T12:49:35.468Z,86251.05
2019-04-06T12:52:02.185Z,86253.34
2019-04-06T12:54:29.454Z,86255.88
2019-04-06T12:56:56.339Z,86259.78
2019-04-06T12:59:23.028Z,86260.45
2019-04-06T13:01:49.821Z,86253.73
2019-04-06T13:04:16.540Z,86247.30
2019-04-06T13:06:43.309Z,86250.43
2019-04-06T13:09:10.036Z,86250.59
2019-04-06T13:11:36.768Z,86254.33
2019-04-06T13:14:03.540Z,86249.50
2019-04-06T13:16:30.448Z,86249.21
2019-04-06T13:18:57.217Z,86247.55
2019-04-06T13:21:24.153Z,86250.59
2019-04-06T13:23:50.859Z,86247.00
2019-04-06T13:26:17.585Z,86242.20
2019-04-06T13:28:44.588Z,86244.15
2019-04-06T13:31:11.288Z,86256.94
2019-04-06T13:33:37.992Z,86258.74
2019-04-06T13:36:04.906Z,86268.22
2019-04-06T13:38:31.648Z,86270.07
2019-04-06T13:40:58.672Z,86273.93
2019-04-06T13:43:25.562Z,86276.80
2019-04-06T13:45:52.428Z,86283.00
2019-04-06T13:48:19.160Z,86283.34
2019-04-06T13:50:45.875Z,86270.31
2019-04-06T13:53:12.638Z,86267.45
2019-04-06T13:55:39.360Z,86270.61
2019-04-06T13:58:06.646Z,86263.39
2019-04-06T14:00:33.397Z,86261.98
2019-04-06T14:03:00.131Z,86272.19
2019-04-06T14:05:27.014Z,86271.84
2019-04-06T14:07:54.416Z,86260.83
2019-04-06T14:10:21.190Z,86254.66
2019-04-06T14:12:48.060Z,86252.90
2019-04-06T14:15:14.758Z,86265.52
2019-04-06T14:17:41.602Z,86263.20
2019-04-06T14:20:09.148Z,86258.30
2019-04-06T14:22:36.290Z,86261.69
2019-04-06T14:25:18.192Z,86266.59
2019-04-06T14:27:44.907Z,86269.62
2019-04-06T14:30:11.621Z,86271.91
2019-04-06T14:32:38.670Z,86271.81
2019-04-06T14:35:06.103Z,86271.70
2019-04-06T14:37:32.835Z,86268.17
2019-04-06T14:39:59.698Z,86272.42
2019-04-06T14:42:26.421Z,86275.84
2019-04-06T14:44:53.174Z,86268.68
2019-04-06T14:47:20.030Z,86267.91
2019-04-06T14:49:46.781Z,86262.92
2019-04-06T14:52:13.490Z,86258.70
2019-04-06T14:54:40.241Z,86260.81
2019-04-06T14:57:06.957Z,86260.97
2019-04-06T14:59:33.814Z,86264.54
2019-04-06T15:02:05.254Z,86267.33
2019-04-06T15:04:32.556Z,86262.36
2019-04-06T15:07:09.645Z,86261.60
2019-04-06T15:09:27.906Z,86257.15
2019-04-06T15:11:54.823Z,86256.32
2019-04-06T15:14:21.867Z,86251.00
2019-04-06T15:16:48.577Z,86248.05
2019-04-06T15:19:17.579Z,86246.48
2019-04-06T15:21:43.970Z,86256.09
2019-04-06T15:24:10.660Z,86255.91
2019-04-06T15:26:37.477Z,86249.66
2019-04-06T15:29:04.151Z,86243.83
2019-04-06T15:31:30.858Z,86245.94
2019-04-06T15:33:57.648Z,86245.88
2019-04-06T15:36:24.374Z,86248.55
2019-04-06T15:38:51.161Z,86246.77
2019-04-06T15:41:17.910Z,86251.23
2019-04-06T15:43:44.595Z,86254.88
2019-04-06T15:46:11.373Z,86252.11
2019-04-06T15:48:40.118Z,86259.63
2019-04-06T15:51:06.583Z,86256.36
2019-04-06T15:53:33.361Z,86257.58
2019-04-06T15:56:00.249Z,86260.22
2019-04-06T15:58:27.048Z,86264.86
2019-04-06T16:00:53.917Z,86266.80
2019-04-06T16:03:20.601Z,86273.95
2019-04-06T16:05:47.332Z,86273.78
2019-04-06T16:08:14.355Z,86271.05
2019-04-06T16:10:41.074Z,86273.33
2019-04-06T16:13:07.947Z,86277.92
2019-04-06T16:15:34.660Z,86274.11
2019-04-06T16:18:01.389Z,86275.82
2019-04-06T16:20:28.134Z,86283.77
2019-04-06T16:22:54.862Z,86282.93
2019-04-06T16:25:21.844Z,86289.64
2019-04-06T16:27:48.556Z,86288.19
2019-04-06T16:30:15.694Z,86286.69
2019-04-06T16:32:42.496Z,86288.61
2019-04-06T16:35:09.230Z,86289.37
2019-04-06T16:37:36.199Z,86293.34
2019-04-06T16:40:05.822Z,86294.63
2019-04-06T16:42:32.504Z,86295.16
2019-04-06T16:44:59.221Z,86297.05
2019-04-06T16:47:26.321Z,86297.80
2019-04-06T16:49:53.377Z,86298.38
2019-04-06T16:52:20.262Z,86298.71
2019-04-06T16:54:47.399Z,86299.48
2019-04-06T16:57:14.154Z,86301.16
2019-04-06T16:59:40.878Z,86298.17
2019-04-06T17:02:08.990Z,86300.70
2019-04-06T17:04:37.556Z,86309.51
2019-04-06T17:07:04.274Z,86307.09
2019-04-06T17:09:34.963Z,86306.52
2019-04-06T17:12:01.959Z,86303.94
2019-04-06T17:14:28.696Z,86300.77
2019-04-06T17:16:55.814Z,86304.58
2019-04-06T17:19:22.733Z,86306.34
2019-04-06T17:21:49.750Z,86302.74
2019-04-06T17:24:16.733Z,86305.88
2019-04-06T17:26:43.745Z,86311.44
2019-04-06T17:29:10.488Z,86305.40
2019-04-06T17:31:37.206Z,86303.83
2019-04-06T17:34:04.135Z,86302.67
2019-04-06T17:36:31.119Z,86309.51
2019-04-06T17:38:57.885Z,86310.88
2019-04-06T17:41:28.253Z,86312.03
2019-04-06T17:43:55.354Z,86318.81
2019-04-06T17:46:22.277Z,86312.11
2019-04-06T17:48:49.557Z,86310.07
2019-04-06T17:51:16.731Z,86310.48
2019-04-06T17:53:43.670Z,86311.66
2019-04-06T17:56:10.909Z,86309.83
2019-04-06T17:58:37.590Z,86309.33
2019-04-06T18:01:04.381Z,86315.55
2019-04-06T18:03:31.133Z,86323.28
2019-04-06T18:05:58.063Z,86324.44
2019-04-06T18:08:24.901Z,86327.30
2019-04-06T18:10:51.608Z,86324.72
2019-04-06T18:13:18.312Z,86330.45
2019-04-06T18:15:45.106Z,86331.05
2019-04-06T18:18:11.835Z,86330.30
2019-04-06T18:20:38.650Z,86326.91
2019-04-06T18:23:05.395Z,86333.91
2019-04-06T18:25:32.119Z,86332.76
2019-04-06T18:27:58.989Z,86336.73
2019-04-06T18:30:25.982Z,86340.08
2019-04-06T18:33:00.639Z,86340.47
2019-04-06T18:35:24.634Z,86340.50
2019-04-06T18:37:51.459Z,86337.52
2019-04-06T18:40:18.161Z,86336.95
2019-04-06T18:42:45.295Z,86341.98
2019-04-06T18:45:12.070Z,86338.59
2019-04-06T18:47:39.025Z,86337.84
2019-04-06T18:50:06.181Z,86341.98
2019-04-06T18:52:32.905Z,86342.93
2019-04-06T18:54:59.898Z,86345.92
2019-04-06T18:57:26.646Z,86341.62
2019-04-06T18:59:53.805Z,86344.64
2019-04-06T19:02:21.336Z,86339.39
2019-04-06T19:04:48.673Z,86337.91
2019-04-06T19:07:15.698Z,86337.19
2019-04-06T19:09:42.810Z,86334.36
2019-04-06T19:12:11.922Z,86332.69
2019-04-06T19:14:38.590Z,86335.52
2019-04-06T19:17:05.590Z,86329.90
2019-04-06T19:19:32.516Z,86329.17
2019-04-06T19:21:59.413Z,86330.13
2019-04-06T19:24:26.342Z,86333.70
2019-04-06T19:26:53.119Z,86329.20
2019-04-06T19:29:20.050Z,86332.19
2019-04-06T19:31:46.808Z,86335.77
2019-04-06T19:34:13.737Z,86332.94
2019-04-06T19:36:40.658Z,86339.34
2019-04-06T19:39:12.100Z,86336.13
2019-04-06T19:41:38.813Z,86334.84
2019-04-06T19:44:05.586Z,86339.16
2019-04-06T19:46:32.394Z,86342.16
2019-04-06T19:48:59.574Z,86340.64
2019-04-06T19:51:26.519Z,86335.24
2019-04-06T19:53:53.629Z,86340.88
2019-04-06T19:56:20.403Z,86335.66
2019-04-06T19:58:47.196Z,86338.66
2019-04-06T20:01:13.935Z,86339.24
2019-04-06T20:03:40.668Z,86335.11
2019-04-06T20:06:08.859Z,86336.25
2019-04-06T20:08:36.261Z,86334.95
2019-04-06T20:11:03.641Z,86346.02
2019-04-06T20:13:30.423Z,86348.09
2019-04-06T20:15:57.269Z,86347.56
2019-04-06T20:18:24.596Z,86341.95
2019-04-06T20:20:51.341Z,86346.83
2019-04-06T20:23:18.059Z,86349.25
2019-04-06T20:25:45.300Z,86344.01
2019-04-06T20:28:12.145Z,86343.08
2019-04-06T20:30:38.967Z,86343.80
2019-04-06T20:33:05.925Z,86342.85
2019-04-06T20:35:32.703Z,86349.78
2019-04-06T20:37:59.390Z,86343.41
2019-04-06T20:40:26.226Z,86348.45
2019-04-06T20:42:52.967Z,86352.19
2019-04-06T20:45:19.687Z,86347.68
2019-04-06T20:47:46.552Z,86343.19
2019-04-06T20:50:13.669Z,86338.31
2019-04-06T20:52:40.886Z,86334.55
2019-04-06T20:55:10.159Z,86338.10
2019-04-06T20:57:37.318Z,86330.77
2019-04-06T21:00:06.509Z,86334.34
2019-04-06T21:02:33.972Z,86329.48
2019-04-06T21:05:00.799Z,86332.69
2019-04-06T21:07:27.570Z,86325.55
2019-04-06T21:09:54.366Z,86325.19
2019-04-06T21:12:21.086Z,86324.04
2019-04-06T21:14:48.082Z,86326.87
2019-04-06T21:17:15.109Z,86334.00
2019-04-06T21:19:41.934Z,86322.20
2019-04-06T21:22:09.010Z,86325.72
2019-04-06T21:24:36.080Z,86324.06
2019-04-06T21:27:03.294Z,86327.44
2019-04-06T21:29:30.173Z,86327.05
2019-04-06T21:31:57.387Z,86322.75
2019-04-06T21:34:24.699Z,86323.28
2019-04-06T21:36:51.657Z,86317.31
2019-04-06T21:39:18.373Z,86319.55
2019-04-06T21:41:45.083Z,86316.95
2019-04-06T21:44:12.186Z,86321.80
2019-04-06T21:46:39.269Z,86314.86
2019-04-06T21:49:06.153Z,86321.05
2019-04-06T21:51:32.898Z,86314.69
2019-04-06T21:53:59.850Z,86316.00
2019-04-06T21:56:27.214Z,86320.66
2019-04-06T21:58:54.021Z,86318.43
2019-04-06T22:01:21.034Z,86324.63
2019-04-06T22:03:48.376Z,86330.45
2019-04-06T22:06:15.216Z,86320.88
2019-04-06T22:08:41.996Z,86328.38
2019-04-06T22:11:08.862Z,86319.78
2019-04-06T22:13:35.579Z,86326.16
2019-04-06T22:16:03.024Z,86324.48
2019-04-06T22:18:29.974Z,86322.78
2019-04-06T22:20:56.871Z,86322.78
2019-04-06T22:23:24.188Z,86319.97
2019-04-06T22:25:51.399Z,86322.23
2019-04-06T22:28:18.621Z,86321.09
2019-04-06T22:30:45.972Z,86324.66
2019-04-06T22:33:12.965Z,86317.35
2019-04-06T22:35:39.753Z,86315.84
2019-04-06T22:38:06.838Z,86309.85
2019-04-06T22:40:34.102Z,86322.02
2019-04-06T22:43:01.357Z,86319.42
2019-04-06T22:45:28.324Z,86311.55
2019-04-06T22:47:55.724Z,86310.05
2019-04-06T22:50:23.259Z,86311.36
2019-04-06T22:52:50.406Z,86301.59
2019-04-06T22:55:17.672Z,86301.98
2019-04-06T22:57:44.585Z,86302.73
2019-04-06T23:00:12.390Z,86303.66
2019-04-06T23:02:39.653Z,86301.06
2019-04-06T23:05:06.486Z,86299.38
2019-04-06T23:07:33.636Z,86300.86
2019-04-06T23:10:01.110Z,86300.13
2019-04-06T23:12:27.979Z,86304.45
2019-04-06T23:14:54.683Z,86311.20
2019-04-06T23:17:21.490Z,86307.27
2019-04-06T23:19:48.472Z,86307.44
2019-04-06T23:22:15.816Z,86302.19
2019-04-06T23:24:43.105Z,86301.27
2019-04-06T23:27:09.947Z,86298.11
2019-04-06T23:29:36.601Z,86299.41
2019-04-06T23:32:03.414Z,86299.61
2019-04-06T23:34:30.308Z,86310.27
2019-04-06T23:36:57.070Z,86304.66
2019-04-06T23:39:24.086Z,86304.09
2019-04-06T23:41:50.939Z,86304.28
2019-04-06T23:44:18.386Z,86295.48
2019-04-06T23:46:45.229Z,86292.86
2019-04-06T23:49:12.076Z,86296.06
2019-04-06T23:51:39.232Z,86291.19
2019-04-06T23:54:07.041Z,86289.68
2019-04-06T23:56:33.843Z,86296.43
2019-04-06T23:59:00.681Z,86301.86
